sensor_id;sensor_type;location;lat;lon;timestamp;P1;durP1;ratioP1;P2;durP2;ratioP2
7875;SDS011;69649;53.712;9.680;2023-05-19T00:01:26;6.53;;;4.90;;
7875;SDS011;69649;53.712;9.680;2023-05-19T00:03:54;7.07;;;3.47;;
7875;SDS011;69649;53.712;9.680;2023-05-19T00:06:23;9.23;;;3.37;;
7875;SDS011;69649;53.712;9.680;2023-05-19T00:08:56;6.50;;;3.97;;
7875;SDS011;69649;53.712;9.680;2023-05-19T00:11:21;9.03;;;4.17;;
7875;SDS011;69649;53.712;9.680;2023-05-19T00:13:47;9.13;;;4.70;;
7875;SDS011;69649;53.712;9.680;2023-05-19T00:16:15;7.70;;;4.03;;
7875;SDS011;69649;53.712;9.680;2023-05-19T00:18:41;7.20;;;3.60;;
7875;SDS011;69649;53.712;9.680;2023-05-19T00:21:07;5.33;;;3.77;;
7875;SDS011;69649;53.712;9.680;2023-05-19T00:23:33;6.80;;;3.90;;
7875;SDS011;69649;53.712;9.680;2023-05-19T00:25:59;6.70;;;4.03;;
7875;SDS011;69649;53.712;9.680;2023-05-19T00:28:25;7.80;;;4.00;;
7875;SDS011;69649;53.712;9.680;2023-05-19T00:30:51;6.27;;;3.80;;
7875;SDS011;69649;53.712;9.680;2023-05-19T00:33:16;4.80;;;3.53;;
7875;SDS011;69649;53.712;9.680;2023-05-19T00:35:42;8.63;;;4.03;;
7875;SDS011;69649;53.712;9.680;2023-05-19T00:38:08;6.30;;;4.27;;
7875;SDS011;69649;53.712;9.680;2023-05-19T00:40:34;5.23;;;3.60;;
7875;SDS011;69649;53.712;9.680;2023-05-19T00:43:01;6.67;;;3.83;;
7875;SDS011;69649;53.712;9.680;2023-05-19T00:45:27;8.27;;;4.00;;
7875;SDS011;69649;53.712;9.680;2023-05-19T00:47:53;6.33;;;3.33;;
7875;SDS011;69649;53.712;9.680;2023-05-19T00:50:19;10.63;;;3.60;;
7875;SDS011;69649;53.712;9.680;2023-05-19T00:52:45;6.23;;;3.47;;
7875;SDS011;69649;53.712;9.680;2023-05-19T00:55:11;5.97;;;3.87;;
7875;SDS011;69649;53.712;9.680;2023-05-19T00:57:38;5.90;;;3.43;;
7875;SDS011;69649;53.712;9.680;2023-05-19T01:00:04;6.17;;;3.87;;
7875;SDS011;69649;53.712;9.680;2023-05-19T01:02:31;6.13;;;3.60;;
7875;SDS011;69649;53.712;9.680;2023-05-19T01:04:57;5.00;;;3.77;;
7875;SDS011;69649;53.712;9.680;2023-05-19T01:07:24;6.30;;;3.70;;
7875;SDS011;69649;53.712;9.680;2023-05-19T01:09:50;7.23;;;3.40;;
7875;SDS011;69649;53.712;9.680;2023-05-19T01:12:16;6.20;;;3.53;;
7875;SDS011;69649;53.712;9.680;2023-05-19T01:14:42;6.37;;;3.67;;
7875;SDS011;69649;53.712;9.680;2023-05-19T01:17:20;5.30;;;3.50;;
7875;SDS011;69649;53.712;9.680;2023-05-19T01:27:55;9.17;;;3.77;;
7875;SDS011;69649;53.712;9.680;2023-05-19T01:33:11;5.57;;;3.23;;
7875;SDS011;69649;53.712;9.680;2023-05-19T01:35:39;5.43;;;3.63;;
7875;SDS011;69649;53.712;9.680;2023-05-19T01:38:07;5.40;;;3.80;;
7875;SDS011;69649;53.712;9.680;2023-05-19T01:40:35;6.40;;;3.77;;
7875;SDS011;69649;53.712;9.680;2023-05-19T01:43:03;5.07;;;2.90;;
7875;SDS011;69649;53.712;9.680;2023-05-19T01:45:31;6.57;;;3.47;;
7875;SDS011;69649;53.712;9.680;2023-05-19T01:47:59;6.77;;;3.90;;
7875;SDS011;69649;53.712;9.680;2023-05-19T01:50:27;4.87;;;3.33;;
7875;SDS011;69649;53.712;9.680;2023-05-19T01:52:54;5.33;;;3.63;;
7875;SDS011;69649;53.712;9.680;2023-05-19T01:55:20;4.30;;;3.87;;
7875;SDS011;69649;53.712;9.680;2023-05-19T02:08:41;3.83;;;3.33;;
7875;SDS011;69649;53.712;9.680;2023-05-19T02:14:12;7.90;;;3.87;;
7875;SDS011;69649;53.712;9.680;2023-05-19T02:16:37;6.03;;;3.57;;
7875;SDS011;69649;53.712;9.680;2023-05-19T02:19:05;7.23;;;3.63;;
7875;SDS011;69649;53.712;9.680;2023-05-19T02:21:30;6.47;;;3.57;;
7875;SDS011;69649;53.712;9.680;2023-05-19T02:23:56;9.37;;;4.23;;
7875;SDS011;69649;53.712;9.680;2023-05-19T02:26:22;7.03;;;3.57;;
7875;SDS011;69649;53.712;9.680;2023-05-19T02:28:48;6.47;;;3.87;;
7875;SDS011;69649;53.712;9.680;2023-05-19T02:31:13;11.80;;;4.00;;
7875;SDS011;69649;53.712;9.680;2023-05-19T02:33:39;6.53;;;4.23;;
7875;SDS011;69649;53.712;9.680;2023-05-19T02:36:05;6.10;;;3.90;;
7875;SDS011;69649;53.712;9.680;2023-05-19T02:38:33;8.60;;;3.67;;
7875;SDS011;69649;53.712;9.680;2023-05-19T02:40:59;7.50;;;3.80;;
7875;SDS011;69649;53.712;9.680;2023-05-19T02:43:24;6.43;;;3.60;;
7875;SDS011;69649;53.712;9.680;2023-05-19T02:45:50;5.17;;;3.13;;
7875;SDS011;69649;53.712;9.680;2023-05-19T02:48:16;11.00;;;4.70;;
7875;SDS011;69649;53.712;9.680;2023-05-19T02:50:42;8.13;;;3.90;;
7875;SDS011;69649;53.712;9.680;2023-05-19T02:53:07;5.80;;;3.70;;
7875;SDS011;69649;53.712;9.680;2023-05-19T02:55:33;4.83;;;3.60;;
7875;SDS011;69649;53.712;9.680;2023-05-19T02:57:59;6.40;;;4.10;;
7875;SDS011;69649;53.712;9.680;2023-05-19T03:00:24;6.57;;;3.77;;
7875;SDS011;69649;53.712;9.680;2023-05-19T03:02:50;8.17;;;3.70;;
7875;SDS011;69649;53.712;9.680;2023-05-19T03:05:17;9.07;;;3.40;;
7875;SDS011;69649;53.712;9.680;2023-05-19T03:07:44;7.30;;;3.77;;
7875;SDS011;69649;53.712;9.680;2023-05-19T03:10:10;3.97;;;3.20;;
7875;SDS011;69649;53.712;9.680;2023-05-19T03:12:35;6.33;;;3.73;;
7875;SDS011;69649;53.712;9.680;2023-05-19T03:15:02;4.70;;;3.40;;
7875;SDS011;69649;53.712;9.680;2023-05-19T03:17:28;4.50;;;3.40;;
7875;SDS011;69649;53.712;9.680;2023-05-19T03:19:55;5.33;;;3.83;;
7875;SDS011;69649;53.712;9.680;2023-05-19T03:22:21;9.50;;;3.60;;
7875;SDS011;69649;53.712;9.680;2023-05-19T03:24:47;6.60;;;3.40;;
7875;SDS011;69649;53.712;9.680;2023-05-19T03:27:15;4.63;;;3.73;;
7875;SDS011;69649;53.712;9.680;2023-05-19T03:29:40;5.43;;;3.70;;
7875;SDS011;69649;53.712;9.680;2023-05-19T03:32:06;8.57;;;3.87;;
7875;SDS011;69649;53.712;9.680;2023-05-19T03:34:32;9.37;;;4.10;;
7875;SDS011;69649;53.712;9.680;2023-05-19T03:36:58;4.40;;;3.50;;
7875;SDS011;69649;53.712;9.680;2023-05-19T03:42:09;5.77;;;3.57;;
7875;SDS011;69649;53.712;9.680;2023-05-19T03:44:35;4.93;;;3.97;;
7875;SDS011;69649;53.712;9.680;2023-05-19T03:47:01;7.60;;;3.80;;
7875;SDS011;69649;53.712;9.680;2023-05-19T03:49:26;6.00;;;3.50;;
7875;SDS011;69649;53.712;9.680;2023-05-19T03:54:38;5.47;;;4.93;;
7875;SDS011;69649;53.712;9.680;2023-05-19T03:57:04;5.03;;;3.57;;
7875;SDS011;69649;53.712;9.680;2023-05-19T03:59:30;5.30;;;3.53;;
7875;SDS011;69649;53.712;9.680;2023-05-19T04:01:56;7.30;;;3.57;;
7875;SDS011;69649;53.712;9.680;2023-05-19T04:04:22;6.33;;;3.50;;
7875;SDS011;69649;53.712;9.680;2023-05-19T04:06:48;7.30;;;3.40;;
7875;SDS011;69649;53.712;9.680;2023-05-19T04:09:14;7.77;;;4.17;;
7875;SDS011;69649;53.712;9.680;2023-05-19T04:11:41;5.53;;;3.73;;
7875;SDS011;69649;53.712;9.680;2023-05-19T04:14:07;11.43;;;4.00;;
7875;SDS011;69649;53.712;9.680;2023-05-19T04:16:34;7.00;;;3.90;;
7875;SDS011;69649;53.712;9.680;2023-05-19T04:19:00;6.17;;;3.70;;
7875;SDS011;69649;53.712;9.680;2023-05-19T04:21:26;7.17;;;3.73;;
7875;SDS011;69649;53.712;9.680;2023-05-19T04:23:52;7.83;;;3.43;;
7875;SDS011;69649;53.712;9.680;2023-05-19T04:26:18;6.90;;;4.00;;
7875;SDS011;69649;53.712;9.680;2023-05-19T04:28:45;8.67;;;3.53;;
7875;SDS011;69649;53.712;9.680;2023-05-19T04:31:12;5.30;;;3.47;;
7875;SDS011;69649;53.712;9.680;2023-05-19T04:33:42;4.27;;;3.30;;
7875;SDS011;69649;53.712;9.680;2023-05-19T04:36:08;6.07;;;4.13;;
7875;SDS011;69649;53.712;9.680;2023-05-19T04:38:35;7.70;;;3.70;;
7875;SDS011;69649;53.712;9.680;2023-05-19T04:41:02;7.27;;;3.80;;
7875;SDS011;69649;53.712;9.680;2023-05-19T04:43:28;8.33;;;4.23;;
7875;SDS011;69649;53.712;9.680;2023-05-19T04:45:54;6.07;;;3.43;;
7875;SDS011;69649;53.712;9.680;2023-05-19T04:48:22;5.47;;;3.60;;
7875;SDS011;69649;53.712;9.680;2023-05-19T04:50:48;7.70;;;3.87;;
7875;SDS011;69649;53.712;9.680;2023-05-19T04:53:16;4.00;;;3.40;;
7875;SDS011;69649;53.712;9.680;2023-05-19T04:55:42;11.43;;;4.33;;
7875;SDS011;69649;53.712;9.680;2023-05-19T04:58:09;8.07;;;3.90;;
7875;SDS011;69649;53.712;9.680;2023-05-19T05:00:56;4.97;;;3.30;;
7875;SDS011;69649;53.712;9.680;2023-05-19T05:03:22;8.37;;;3.40;;
7875;SDS011;69649;53.712;9.680;2023-05-19T05:05:49;5.30;;;3.83;;
7875;SDS011;69649;53.712;9.680;2023-05-19T05:08:16;9.40;;;3.17;;
7875;SDS011;69649;53.712;9.680;2023-05-19T05:10:44;6.23;;;3.70;;
7875;SDS011;69649;53.712;9.680;2023-05-19T05:13:10;12.57;;;4.33;;
7875;SDS011;69649;53.712;9.680;2023-05-19T05:15:36;6.80;;;3.23;;
7875;SDS011;69649;53.712;9.680;2023-05-19T05:18:03;8.53;;;4.57;;
7875;SDS011;69649;53.712;9.680;2023-05-19T05:20:30;7.63;;;3.77;;
7875;SDS011;69649;53.712;9.680;2023-05-19T05:22:57;7.77;;;3.87;;
7875;SDS011;69649;53.712;9.680;2023-05-19T05:25:23;4.97;;;3.47;;
7875;SDS011;69649;53.712;9.680;2023-05-19T05:27:49;7.63;;;3.30;;
7875;SDS011;69649;53.712;9.680;2023-05-19T05:30:15;6.50;;;3.80;;
7875;SDS011;69649;53.712;9.680;2023-05-19T05:32:41;8.07;;;4.17;;
7875;SDS011;69649;53.712;9.680;2023-05-19T05:35:28;13.37;;;3.80;;
7875;SDS011;69649;53.712;9.680;2023-05-19T05:37:54;8.27;;;4.53;;
7875;SDS011;69649;53.712;9.680;2023-05-19T05:40:20;7.83;;;3.87;;
7875;SDS011;69649;53.712;9.680;2023-05-19T05:42:46;5.53;;;3.40;;
7875;SDS011;69649;53.712;9.680;2023-05-19T05:45:12;10.40;;;4.23;;
7875;SDS011;69649;53.712;9.680;2023-05-19T05:47:38;7.10;;;3.93;;
7875;SDS011;69649;53.712;9.680;2023-05-19T05:50:06;8.37;;;3.77;;
7875;SDS011;69649;53.712;9.680;2023-05-19T05:52:35;6.43;;;4.00;;
7875;SDS011;69649;53.712;9.680;2023-05-19T05:55:02;8.47;;;3.70;;
7875;SDS011;69649;53.712;9.680;2023-05-19T05:57:30;6.03;;;3.70;;
7875;SDS011;69649;53.712;9.680;2023-05-19T05:59:56;5.40;;;3.80;;
7875;SDS011;69649;53.712;9.680;2023-05-19T06:02:22;6.73;;;3.47;;
7875;SDS011;69649;53.712;9.680;2023-05-19T06:04:47;6.60;;;3.70;;
7875;SDS011;69649;53.712;9.680;2023-05-19T06:07:13;5.77;;;3.40;;
7875;SDS011;69649;53.712;9.680;2023-05-19T06:09:39;6.10;;;3.70;;
7875;SDS011;69649;53.712;9.680;2023-05-19T06:12:05;8.37;;;3.57;;
7875;SDS011;69649;53.712;9.680;2023-05-19T06:14:31;8.50;;;3.43;;
7875;SDS011;69649;53.712;9.680;2023-05-19T06:16:56;11.73;;;3.80;;
7875;SDS011;69649;53.712;9.680;2023-05-19T06:19:22;5.37;;;3.30;;
7875;SDS011;69649;53.712;9.680;2023-05-19T06:21:50;6.93;;;3.63;;
7875;SDS011;69649;53.712;9.680;2023-05-19T06:24:16;8.40;;;3.57;;
7875;SDS011;69649;53.712;9.680;2023-05-19T06:26:41;5.40;;;2.93;;
7875;SDS011;69649;53.712;9.680;2023-05-19T06:29:07;5.10;;;3.40;;
7875;SDS011;69649;53.712;9.680;2023-05-19T06:31:33;6.83;;;3.57;;
7875;SDS011;69649;53.712;9.680;2023-05-19T06:33:59;8.30;;;3.80;;
7875;SDS011;69649;53.712;9.680;2023-05-19T06:36:25;10.47;;;4.20;;
7875;SDS011;69649;53.712;9.680;2023-05-19T06:38:51;8.43;;;3.70;;
7875;SDS011;69649;53.712;9.680;2023-05-19T06:44:03;7.23;;;3.13;;
7875;SDS011;69649;53.712;9.680;2023-05-19T06:46:30;6.77;;;3.20;;
7875;SDS011;69649;53.712;9.680;2023-05-19T06:48:56;3.50;;;2.80;;
7875;SDS011;69649;53.712;9.680;2023-05-19T06:51:22;5.70;;;3.17;;
7875;SDS011;69649;53.712;9.680;2023-05-19T06:53:48;4.07;;;2.67;;
7875;SDS011;69649;53.712;9.680;2023-05-19T06:56:14;7.93;;;3.27;;
7875;SDS011;69649;53.712;9.680;2023-05-19T06:58:40;8.80;;;3.47;;
7875;SDS011;69649;53.712;9.680;2023-05-19T07:01:06;4.00;;;2.80;;
7875;SDS011;69649;53.712;9.680;2023-05-19T07:03:32;5.80;;;2.93;;
7875;SDS011;69649;53.712;9.680;2023-05-19T07:05:58;6.73;;;3.20;;
7875;SDS011;69649;53.712;9.680;2023-05-19T07:08:23;5.67;;;2.77;;
7875;SDS011;69649;53.712;9.680;2023-05-19T07:10:51;6.70;;;2.60;;
7875;SDS011;69649;53.712;9.680;2023-05-19T07:13:17;3.47;;;2.30;;
7875;SDS011;69649;53.712;9.680;2023-05-19T07:15:42;6.80;;;3.00;;
7875;SDS011;69649;53.712;9.680;2023-05-19T07:18:08;4.43;;;2.87;;
7875;SDS011;69649;53.712;9.680;2023-05-19T07:20:34;5.87;;;2.73;;
7875;SDS011;69649;53.712;9.680;2023-05-19T07:23:00;9.73;;;2.67;;
7875;SDS011;69649;53.712;9.680;2023-05-19T07:25:27;6.53;;;2.30;;
7875;SDS011;69649;53.712;9.680;2023-05-19T07:27:55;4.47;;;2.33;;
7875;SDS011;69649;53.712;9.680;2023-05-19T07:30:21;7.47;;;2.47;;
7875;SDS011;69649;53.712;9.680;2023-05-19T07:32:47;4.57;;;2.70;;
7875;SDS011;69649;53.712;9.680;2023-05-19T07:35:13;5.27;;;2.40;;
7875;SDS011;69649;53.712;9.680;2023-05-19T07:37:38;7.83;;;2.63;;
7875;SDS011;69649;53.712;9.680;2023-05-19T07:40:05;5.33;;;2.33;;
7875;SDS011;69649;53.712;9.680;2023-05-19T07:42:32;6.03;;;2.03;;
7875;SDS011;69649;53.712;9.680;2023-05-19T07:44:58;4.13;;;2.23;;
7875;SDS011;69649;53.712;9.680;2023-05-19T07:47:25;7.50;;;2.20;;
7875;SDS011;69649;53.712;9.680;2023-05-19T07:49:50;8.10;;;2.70;;
7875;SDS011;69649;53.712;9.680;2023-05-19T07:52:16;4.00;;;2.27;;
7875;SDS011;69649;53.712;9.680;2023-05-19T07:54:43;4.33;;;2.57;;
7875;SDS011;69649;53.712;9.680;2023-05-19T07:57:09;8.03;;;2.20;;
7875;SDS011;69649;53.712;9.680;2023-05-19T07:59:35;5.60;;;1.90;;
7875;SDS011;69649;53.712;9.680;2023-05-19T08:02:01;7.33;;;2.13;;
7875;SDS011;69649;53.712;9.680;2023-05-19T08:04:26;7.17;;;1.73;;
7875;SDS011;69649;53.712;9.680;2023-05-19T08:06:53;12.47;;;2.20;;
7875;SDS011;69649;53.712;9.680;2023-05-19T08:09:19;8.07;;;2.43;;
7875;SDS011;69649;53.712;9.680;2023-05-19T08:11:45;6.50;;;2.00;;
7875;SDS011;69649;53.712;9.680;2023-05-19T08:14:14;8.83;;;2.07;;
7875;SDS011;69649;53.712;9.680;2023-05-19T08:16:40;7.77;;;3.57;;
7875;SDS011;69649;53.712;9.680;2023-05-19T08:19:10;5.73;;;2.23;;
7875;SDS011;69649;53.712;9.680;2023-05-19T08:21:36;4.30;;;2.00;;
7875;SDS011;69649;53.712;9.680;2023-05-19T08:24:02;6.33;;;2.20;;
7875;SDS011;69649;53.712;9.680;2023-05-19T08:26:28;6.07;;;2.30;;
7875;SDS011;69649;53.712;9.680;2023-05-19T08:28:54;3.90;;;1.90;;
7875;SDS011;69649;53.712;9.680;2023-05-19T08:31:20;4.00;;;1.90;;
7875;SDS011;69649;53.712;9.680;2023-05-19T08:33:46;5.63;;;2.13;;
7875;SDS011;69649;53.712;9.680;2023-05-19T08:36:12;4.77;;;1.90;;
7875;SDS011;69649;53.712;9.680;2023-05-19T08:38:38;4.77;;;1.97;;
7875;SDS011;69649;53.712;9.680;2023-05-19T08:41:04;8.20;;;2.20;;
7875;SDS011;69649;53.712;9.680;2023-05-19T08:43:30;9.97;;;2.50;;
7875;SDS011;69649;53.712;9.680;2023-05-19T08:45:56;5.97;;;2.43;;
7875;SDS011;69649;53.712;9.680;2023-05-19T08:48:23;8.27;;;2.17;;
7875;SDS011;69649;53.712;9.680;2023-05-19T08:53:47;8.37;;;1.93;;
7875;SDS011;69649;53.712;9.680;2023-05-19T08:56:20;6.13;;;1.97;;
7875;SDS011;69649;53.712;9.680;2023-05-19T08:58:47;3.87;;;1.60;;
7875;SDS011;69649;53.712;9.680;2023-05-19T09:01:15;8.23;;;2.33;;
7875;SDS011;69649;53.712;9.680;2023-05-19T09:03:46;5.50;;;1.90;;
7875;SDS011;69649;53.712;9.680;2023-05-19T09:06:10;3.87;;;2.20;;
7875;SDS011;69649;53.712;9.680;2023-05-19T09:08:39;4.47;;;2.17;;
7875;SDS011;69649;53.712;9.680;2023-05-19T09:11:06;6.37;;;2.70;;
7875;SDS011;69649;53.712;9.680;2023-05-19T09:13:33;14.17;;;2.73;;
7875;SDS011;69649;53.712;9.680;2023-05-19T09:16:00;8.13;;;3.37;;
7875;SDS011;69649;53.712;9.680;2023-05-19T09:18:28;6.13;;;2.00;;
7875;SDS011;69649;53.712;9.680;2023-05-19T09:20:59;6.60;;;2.27;;
7875;SDS011;69649;53.712;9.680;2023-05-19T09:23:29;4.50;;;2.03;;
7875;SDS011;69649;53.712;9.680;2023-05-19T09:26:00;5.10;;;1.83;;
7875;SDS011;69649;53.712;9.680;2023-05-19T09:28:33;4.90;;;2.20;;
7875;SDS011;69649;53.712;9.680;2023-05-19T09:31:04;10.07;;;2.67;;
7875;SDS011;69649;53.712;9.680;2023-05-19T09:33:33;5.83;;;2.00;;
7875;SDS011;69649;53.712;9.680;2023-05-19T09:36:03;4.87;;;2.10;;
7875;SDS011;69649;53.712;9.680;2023-05-19T09:38:30;4.43;;;1.70;;
7875;SDS011;69649;53.712;9.680;2023-05-19T09:40:58;6.33;;;2.10;;
7875;SDS011;69649;53.712;9.680;2023-05-19T09:43:28;5.67;;;1.70;;
7875;SDS011;69649;53.712;9.680;2023-05-19T09:45:57;5.63;;;1.87;;
7875;SDS011;69649;53.712;9.680;2023-05-19T09:48:27;8.10;;;2.03;;
7875;SDS011;69649;53.712;9.680;2023-05-19T09:50:53;3.73;;;2.03;;
7875;SDS011;69649;53.712;9.680;2023-05-19T09:53:19;5.33;;;1.70;;
7875;SDS011;69649;53.712;9.680;2023-05-19T09:55:46;5.53;;;2.80;;
7875;SDS011;69649;53.712;9.680;2023-05-19T09:58:19;7.17;;;2.23;;
7875;SDS011;69649;53.712;9.680;2023-05-19T10:00:45;6.17;;;1.80;;
7875;SDS011;69649;53.712;9.680;2023-05-19T10:03:12;6.40;;;2.27;;
7875;SDS011;69649;53.712;9.680;2023-05-19T10:05:40;6.87;;;2.33;;
7875;SDS011;69649;53.712;9.680;2023-05-19T10:08:07;3.03;;;1.60;;
7875;SDS011;69649;53.712;9.680;2023-05-19T10:10:36;7.80;;;2.40;;
7875;SDS011;69649;53.712;9.680;2023-05-19T10:13:03;3.63;;;2.07;;
7875;SDS011;69649;53.712;9.680;2023-05-19T10:15:29;5.60;;;2.10;;
7875;SDS011;69649;53.712;9.680;2023-05-19T10:17:57;3.87;;;1.90;;
7875;SDS011;69649;53.712;9.680;2023-05-19T10:20:24;5.47;;;1.73;;
7875;SDS011;69649;53.712;9.680;2023-05-19T10:22:51;5.93;;;1.70;;
7875;SDS011;69649;53.712;9.680;2023-05-19T10:25:16;3.97;;;1.53;;
7875;SDS011;69649;53.712;9.680;2023-05-19T10:27:49;6.73;;;2.20;;
7875;SDS011;69649;53.712;9.680;2023-05-19T10:30:19;5.60;;;1.70;;
7875;SDS011;69649;53.712;9.680;2023-05-19T10:32:47;7.57;;;2.27;;
7875;SDS011;69649;53.712;9.680;2023-05-19T10:40:50;4.67;;;1.40;;
7875;SDS011;69649;53.712;9.680;2023-05-19T10:45:50;6.93;;;2.00;;
7875;SDS011;69649;53.712;9.680;2023-05-19T10:48:18;4.57;;;2.33;;
7875;SDS011;69649;53.712;9.680;2023-05-19T10:50:45;4.40;;;1.73;;
7875;SDS011;69649;53.712;9.680;2023-05-19T10:53:15;7.50;;;1.70;;
7875;SDS011;69649;53.712;9.680;2023-05-19T10:55:44;6.83;;;1.97;;
7875;SDS011;69649;53.712;9.680;2023-05-19T11:01:16;4.27;;;1.93;;
7875;SDS011;69649;53.712;9.680;2023-05-19T11:03:45;5.33;;;1.90;;
7875;SDS011;69649;53.712;9.680;2023-05-19T11:06:21;3.07;;;1.33;;
7875;SDS011;69649;53.712;9.680;2023-05-19T11:08:44;5.63;;;1.90;;
7875;SDS011;69649;53.712;9.680;2023-05-19T11:11:16;4.80;;;1.67;;
7875;SDS011;69649;53.712;9.680;2023-05-19T11:13:42;7.53;;;1.70;;
7875;SDS011;69649;53.712;9.680;2023-05-19T11:16:16;6.30;;;1.80;;
7875;SDS011;69649;53.712;9.680;2023-05-19T11:19:00;3.00;;;1.80;;
7875;SDS011;69649;53.712;9.680;2023-05-19T11:32:35;2.77;;;1.47;;
7875;SDS011;69649;53.712;9.680;2023-05-19T11:35:06;2.73;;;1.40;;
7875;SDS011;69649;53.712;9.680;2023-05-19T11:37:33;4.47;;;1.47;;
7875;SDS011;69649;53.712;9.680;2023-05-19T11:40:02;5.43;;;1.90;;
7875;SDS011;69649;53.712;9.680;2023-05-19T11:42:32;5.07;;;1.50;;
7875;SDS011;69649;53.712;9.680;2023-05-19T11:44:59;4.40;;;1.33;;
7875;SDS011;69649;53.712;9.680;2023-05-19T11:47:25;6.27;;;2.33;;
7875;SDS011;69649;53.712;9.680;2023-05-19T11:49:52;4.70;;;1.70;;
7875;SDS011;69649;53.712;9.680;2023-05-19T11:52:21;8.33;;;1.80;;
7875;SDS011;69649;53.712;9.680;2023-05-19T11:54:47;5.70;;;1.73;;
7875;SDS011;69649;53.712;9.680;2023-05-19T11:57:13;4.77;;;1.47;;
7875;SDS011;69649;53.712;9.680;2023-05-19T11:59:40;4.80;;;1.80;;
7875;SDS011;69649;53.712;9.680;2023-05-19T12:02:20;3.10;;;1.40;;
7875;SDS011;69649;53.712;9.680;2023-05-19T12:04:49;2.90;;;1.40;;
7875;SDS011;69649;53.712;9.680;2023-05-19T12:07:16;3.87;;;1.20;;
7875;SDS011;69649;53.712;9.680;2023-05-19T12:09:46;4.57;;;1.40;;
7875;SDS011;69649;53.712;9.680;2023-05-19T12:12:18;4.77;;;1.67;;
7875;SDS011;69649;53.712;9.680;2023-05-19T12:14:42;5.73;;;1.30;;
7875;SDS011;69649;53.712;9.680;2023-05-19T12:17:09;4.23;;;1.60;;
7875;SDS011;69649;53.712;9.680;2023-05-19T12:19:37;2.17;;;1.00;;
7875;SDS011;69649;53.712;9.680;2023-05-19T12:22:05;2.03;;;1.20;;
7875;SDS011;69649;53.712;9.680;2023-05-19T12:24:33;4.97;;;1.33;;
7875;SDS011;69649;53.712;9.680;2023-05-19T12:27:04;4.23;;;1.37;;
7875;SDS011;69649;53.712;9.680;2023-05-19T12:29:32;5.47;;;1.47;;
7875;SDS011;69649;53.712;9.680;2023-05-19T12:31:59;3.50;;;1.20;;
7875;SDS011;69649;53.712;9.680;2023-05-19T12:34:25;3.43;;;1.23;;
7875;SDS011;69649;53.712;9.680;2023-05-19T12:36:51;2.93;;;1.50;;
7875;SDS011;69649;53.712;9.680;2023-05-19T12:39:17;3.03;;;1.00;;
7875;SDS011;69649;53.712;9.680;2023-05-19T12:41:43;2.90;;;1.33;;
7875;SDS011;69649;53.712;9.680;2023-05-19T12:44:15;1.97;;;1.10;;
7875;SDS011;69649;53.712;9.680;2023-05-19T12:46:42;2.43;;;1.20;;
7875;SDS011;69649;53.712;9.680;2023-05-19T12:49:08;3.00;;;1.40;;
7875;SDS011;69649;53.712;9.680;2023-05-19T12:51:35;3.23;;;1.40;;
7875;SDS011;69649;53.712;9.680;2023-05-19T12:54:01;2.80;;;1.40;;
7875;SDS011;69649;53.712;9.680;2023-05-19T12:56:29;3.63;;;1.20;;
7875;SDS011;69649;53.712;9.680;2023-05-19T12:58:54;2.67;;;1.30;;
7875;SDS011;69649;53.712;9.680;2023-05-19T13:01:21;2.70;;;1.47;;
7875;SDS011;69649;53.712;9.680;2023-05-19T13:03:48;4.47;;;1.37;;
7875;SDS011;69649;53.712;9.680;2023-05-19T13:06:14;1.73;;;1.10;;
7875;SDS011;69649;53.712;9.680;2023-05-19T13:08:39;1.93;;;1.33;;
7875;SDS011;69649;53.712;9.680;2023-05-19T13:11:05;4.97;;;1.40;;
7875;SDS011;69649;53.712;9.680;2023-05-19T13:13:31;5.47;;;2.00;;
7875;SDS011;69649;53.712;9.680;2023-05-19T13:15:57;3.37;;;1.20;;
7875;SDS011;69649;53.712;9.680;2023-05-19T13:18:23;4.57;;;1.27;;
7875;SDS011;69649;53.712;9.680;2023-05-19T13:20:51;2.13;;;1.23;;
7875;SDS011;69649;53.712;9.680;2023-05-19T13:23:18;5.10;;;1.47;;
7875;SDS011;69649;53.712;9.680;2023-05-19T13:25:44;2.93;;;1.10;;
7875;SDS011;69649;53.712;9.680;2023-05-19T13:28:10;3.00;;;1.33;;
7875;SDS011;69649;53.712;9.680;2023-05-19T13:30:38;3.43;;;1.00;;
7875;SDS011;69649;53.712;9.680;2023-05-19T13:33:05;4.00;;;1.50;;
7875;SDS011;69649;53.712;9.680;2023-05-19T13:35:31;3.17;;;1.20;;
7875;SDS011;69649;53.712;9.680;2023-05-19T13:37:59;2.57;;;1.20;;
7875;SDS011;69649;53.712;9.680;2023-05-19T13:40:25;3.47;;;1.47;;
7875;SDS011;69649;53.712;9.680;2023-05-19T13:42:52;4.03;;;1.30;;
7875;SDS011;69649;53.712;9.680;2023-05-19T13:45:18;3.20;;;1.10;;
7875;SDS011;69649;53.712;9.680;2023-05-19T13:47:43;3.70;;;1.17;;
7875;SDS011;69649;53.712;9.680;2023-05-19T13:50:09;1.80;;;1.03;;
7875;SDS011;69649;53.712;9.680;2023-05-19T13:52:36;3.60;;;1.13;;
7875;SDS011;69649;53.712;9.680;2023-05-19T13:55:02;2.63;;;2.30;;
7875;SDS011;69649;53.712;9.680;2023-05-19T13:57:28;3.43;;;1.20;;
7875;SDS011;69649;53.712;9.680;2023-05-19T13:59:53;2.17;;;1.00;;
7875;SDS011;69649;53.712;9.680;2023-05-19T14:02:19;2.07;;;1.23;;
7875;SDS011;69649;53.712;9.680;2023-05-19T14:04:45;7.50;;;1.33;;
7875;SDS011;69649;53.712;9.680;2023-05-19T14:07:11;2.60;;;1.00;;
7875;SDS011;69649;53.712;9.680;2023-05-19T14:09:37;2.00;;;1.20;;
7875;SDS011;69649;53.712;9.680;2023-05-19T14:12:03;3.30;;;1.30;;
7875;SDS011;69649;53.712;9.680;2023-05-19T14:14:30;5.30;;;1.30;;
7875;SDS011;69649;53.712;9.680;2023-05-19T14:16:56;1.90;;;1.10;;
7875;SDS011;69649;53.712;9.680;2023-05-19T14:19:22;4.30;;;1.33;;
7875;SDS011;69649;53.712;9.680;2023-05-19T14:21:48;2.13;;;1.20;;
7875;SDS011;69649;53.712;9.680;2023-05-19T14:24:14;2.40;;;1.20;;
7875;SDS011;69649;53.712;9.680;2023-05-19T14:26:40;2.50;;;1.00;;
7875;SDS011;69649;53.712;9.680;2023-05-19T14:29:06;4.57;;;1.40;;
7875;SDS011;69649;53.712;9.680;2023-05-19T14:31:33;2.23;;;1.00;;
7875;SDS011;69649;53.712;9.680;2023-05-19T14:33:59;2.20;;;1.10;;
7875;SDS011;69649;53.712;9.680;2023-05-19T14:36:25;3.77;;;1.40;;
7875;SDS011;69649;53.712;9.680;2023-05-19T14:38:50;2.40;;;1.10;;
7875;SDS011;69649;53.712;9.680;2023-05-19T14:41:16;2.57;;;1.00;;
7875;SDS011;69649;53.712;9.680;2023-05-19T14:43:42;2.47;;;1.10;;
7875;SDS011;69649;53.712;9.680;2023-05-19T14:46:07;1.47;;;0.90;;
7875;SDS011;69649;53.712;9.680;2023-05-19T14:48:33;1.70;;;1.00;;
7875;SDS011;69649;53.712;9.680;2023-05-19T14:50:59;2.33;;;1.10;;
7875;SDS011;69649;53.712;9.680;2023-05-19T14:53:25;2.10;;;1.20;;
7875;SDS011;69649;53.712;9.680;2023-05-19T14:55:51;3.03;;;1.10;;
7875;SDS011;69649;53.712;9.680;2023-05-19T14:58:17;1.77;;;0.83;;
7875;SDS011;69649;53.712;9.680;2023-05-19T15:00:42;2.35;;;1.10;;
7875;SDS011;69649;53.712;9.680;2023-05-19T15:03:08;1.47;;;0.80;;
7875;SDS011;69649;53.712;9.680;2023-05-19T15:05:36;2.92;;;1.10;;
7875;SDS011;69649;53.712;9.680;2023-05-19T15:08:04;2.33;;;1.20;;
7875;SDS011;69649;53.712;9.680;2023-05-19T15:10:30;2.60;;;1.20;;
7875;SDS011;69649;53.712;9.680;2023-05-19T15:12:56;1.00;;;0.80;;
7875;SDS011;69649;53.712;9.680;2023-05-19T15:15:22;2.70;;;1.10;;
7875;SDS011;69649;53.712;9.680;2023-05-19T15:17:48;2.92;;;1.10;;
7875;SDS011;69649;53.712;9.680;2023-05-19T15:20:14;1.80;;;0.90;;
7875;SDS011;69649;53.712;9.680;2023-05-19T15:22:39;2.17;;;1.10;;
7875;SDS011;69649;53.712;9.680;2023-05-19T15:25:06;3.27;;;1.20;;
7875;SDS011;69649;53.712;9.680;2023-05-19T15:27:33;2.20;;;1.00;;
7875;SDS011;69649;53.712;9.680;2023-05-19T15:30:03;4.17;;;1.20;;
7875;SDS011;69649;53.712;9.680;2023-05-19T15:32:30;1.40;;;1.07;;
7875;SDS011;69649;53.712;9.680;2023-05-19T15:34:56;1.65;;;0.90;;
7875;SDS011;69649;53.712;9.680;2023-05-19T15:37:22;2.02;;;1.10;;
7875;SDS011;69649;53.712;9.680;2023-05-19T15:39:47;1.57;;;0.90;;
7875;SDS011;69649;53.712;9.680;2023-05-19T15:42:13;1.70;;;1.00;;
7875;SDS011;69649;53.712;9.680;2023-05-19T15:44:39;1.60;;;0.88;;
7875;SDS011;69649;53.712;9.680;2023-05-19T15:47:05;1.15;;;0.82;;
7875;SDS011;69649;53.712;9.680;2023-05-19T15:49:31;1.67;;;1.00;;
7875;SDS011;69649;53.712;9.680;2023-05-19T15:51:56;1.10;;;0.65;;
7875;SDS011;69649;53.712;9.680;2023-05-19T15:54:22;1.30;;;0.70;;
7875;SDS011;69649;53.712;9.680;2023-05-19T15:56:49;3.37;;;0.90;;